Terminal Aerodrome Forecast
Issued by NWS Omaha/Valley, NE

Home | Current Version | Previous Version | Text Only | Print | Product List | Glossary On
Versions: 1 2 3 4 5 6 7 8 9 10 11 12 13 14 15 16 17 18 19 20 21 22 23 24 25 26 27 28 29 30 31 32 33 34 35 36 37 38 39 40
000
FTUS43 KOAX 191726
TAFOFK
TAF
KOFK 191726Z 1918/2018 18010KT 6SM BR OVC010
     FM192100 18006KT P6SM SCT250
      TEMPO 2010/2014 1SM BR OVC015
     FM201400 18004KT P6SM SCT250=

USA.gov is the U.S. government's official web portal to all federal, state and local government web resources and services.